createdAt,value
2022-11-21T00:00:46.951Z,15.45
2022-11-21T00:03:14.180Z,16.23
2022-11-21T00:05:42.448Z,15.57
2022-11-21T00:08:10.109Z,15.32
2022-11-21T00:10:37.772Z,15.32
2022-11-21T00:13:05.622Z,15.32
2022-11-21T00:15:33.295Z,15.30
2022-11-21T00:18:02.541Z,15.27
2022-11-21T00:20:29.179Z,15.10
2022-11-21T00:22:55.834Z,15.15
2022-11-21T00:25:22.902Z,14.77
2022-11-21T00:27:49.548Z,16.00
2022-11-21T00:30:16.287Z,15.07
2022-11-21T00:32:42.928Z,15.50
2022-11-21T00:35:09.674Z,15.45
2022-11-21T00:37:36.308Z,14.25
2022-11-21T00:40:03.220Z,15.73
2022-11-21T00:42:29.773Z,14.90
2022-11-21T00:44:56.464Z,15.52
2022-11-21T00:47:23.078Z,15.77
2022-11-21T00:49:49.742Z,16.00
2022-11-21T00:52:17.467Z,14.65
2022-11-21T00:54:44.388Z,15.23
2022-11-21T00:57:11.332Z,14.93
2022-11-21T00:59:37.983Z,15.88
2022-11-21T01:02:05.574Z,15.27
2022-11-21T01:04:33.926Z,14.60
2022-11-21T01:07:00.820Z,14.80
2022-11-21T01:09:28.852Z,15.10
2022-11-21T01:11:56.291Z,14.48
2022-11-21T01:14:23.037Z,14.93
2022-11-21T01:16:49.797Z,15.23
2022-11-21T01:19:16.582Z,15.45
2022-11-21T01:21:43.362Z,15.32
2022-11-21T01:24:11.874Z,14.52
2022-11-21T01:26:41.548Z,15.57
2022-11-21T01:29:09.013Z,15.90
2022-11-21T01:31:36.220Z,16.25
2022-11-21T01:34:03.027Z,15.60
2022-11-21T01:36:31.639Z,15.63
2022-11-21T01:39:00.577Z,15.30
2022-11-21T01:41:33.817Z,16.05
2022-11-21T01:44:01.923Z,16.15
2022-11-21T01:46:28.911Z,15.15
2022-11-21T01:48:58.401Z,15.23
2022-11-21T01:51:32.290Z,14.98
2022-11-21T01:54:03.412Z,15.23
2022-11-21T01:56:32.671Z,15.43
2022-11-21T01:59:01.342Z,15.52
2022-11-21T02:01:28.741Z,15.38
2022-11-21T02:03:56.079Z,15.82
2022-11-21T02:06:23.688Z,15.30
2022-11-21T02:08:50.666Z,15.23
2022-11-21T02:11:27.362Z,15.85
2022-11-21T02:13:54.716Z,15.73
2022-11-21T02:16:21.823Z,14.80
2022-11-21T02:18:48.441Z,15.20
2022-11-21T02:21:26.023Z,15.30
2022-11-21T02:24:12.540Z,15.90
2022-11-21T02:26:39.368Z,15.55
2022-11-21T02:29:06.060Z,16.02
2022-11-21T02:31:32.800Z,15.18
2022-11-21T02:33:59.466Z,15.70
2022-11-21T02:36:38.422Z,15.05
2022-11-21T02:39:11.910Z,15.13
2022-11-21T02:41:51.270Z,15.57
2022-11-21T02:44:48.441Z,15.30
2022-11-21T02:47:15.069Z,15.75
2022-11-21T02:49:48.939Z,15.50
2022-11-21T02:52:15.860Z,15.65
2022-11-21T02:54:42.568Z,15.85
2022-11-21T02:57:09.153Z,14.55
2022-11-21T02:59:35.883Z,15.20
2022-11-21T03:02:02.794Z,16.58
2022-11-21T03:04:29.682Z,14.40
2022-11-21T03:06:59.859Z,15.45
2022-11-21T03:09:26.658Z,15.38
2022-11-21T03:11:53.349Z,15.02
2022-11-21T03:14:20.031Z,15.55
2022-11-21T03:16:46.670Z,14.77
2022-11-21T03:19:13.337Z,14.93
2022-11-21T03:21:40.100Z,15.45
2022-11-21T03:24:09.870Z,15.35
2022-11-21T03:26:36.515Z,15.70
2022-11-21T03:29:03.225Z,15.00
2022-11-21T03:31:29.861Z,15.27
2022-11-21T03:33:56.510Z,15.50
2022-11-21T03:36:23.161Z,14.90
2022-11-21T03:38:49.972Z,15.00
2022-11-21T03:41:31.913Z,14.60
2022-11-21T03:44:03.967Z,15.13
2022-11-21T03:46:32.887Z,14.98
2022-11-21T03:48:59.946Z,16.55
2022-11-21T03:51:27.118Z,15.70
2022-11-21T03:53:53.852Z,15.68
2022-11-21T03:56:20.584Z,15.73
2022-11-21T03:58:47.638Z,15.40
2022-11-21T04:01:15.233Z,16.13
2022-11-21T04:03:45.572Z,16.05
2022-11-21T04:06:14.124Z,15.73
2022-11-21T04:08:40.785Z,15.73
2022-11-21T04:11:07.858Z,15.30
2022-11-21T04:13:34.709Z,15.95
2022-11-21T04:16:01.460Z,15.32
2022-11-21T04:18:28.052Z,15.60
2022-11-21T04:20:58.492Z,16.17
2022-11-21T04:23:25.843Z,16.42
2022-11-21T04:25:52.924Z,15.25
2022-11-21T04:28:19.983Z,16.08
2022-11-21T04:30:52.466Z,15.68
2022-11-21T04:33:21.486Z,15.90
2022-11-21T04:35:48.402Z,15.88
2022-11-21T04:38:18.096Z,16.00
2022-11-21T04:40:45.632Z,15.80
2022-11-21T04:43:12.332Z,15.57
2022-11-21T04:45:39.241Z,15.63
2022-11-21T04:48:06.157Z,16.50
2022-11-21T04:50:33.315Z,16.25
2022-11-21T04:53:00.087Z,15.88
2022-11-21T04:55:30.286Z,15.07
2022-11-21T04:57:57.048Z,15.73
2022-11-21T05:00:24.616Z,16.70
2022-11-21T05:02:51.788Z,15.88
2022-11-21T05:05:18.696Z,16.85
2022-11-21T05:07:45.328Z,16.10
2022-11-21T05:10:12.163Z,21.30
2022-11-21T05:12:57.654Z,19.70
2022-11-21T05:15:26.498Z,16.30
2022-11-21T05:17:53.191Z,16.60
2022-11-21T05:20:19.887Z,16.75
2022-11-21T05:22:51.833Z,16.05
2022-11-21T05:25:18.552Z,16.13
2022-11-21T05:27:45.287Z,16.63
2022-11-21T05:30:15.156Z,15.60
2022-11-21T05:32:43.596Z,16.75
2022-11-21T05:35:10.358Z,15.77
2022-11-21T05:37:37.044Z,16.45
2022-11-21T05:40:03.959Z,15.40
2022-11-21T05:42:49.287Z,15.70
2022-11-21T05:45:16.269Z,15.30
2022-11-21T05:47:42.941Z,16.35
2022-11-21T05:50:09.747Z,16.15
2022-11-21T05:52:36.384Z,15.98
2022-11-21T05:55:03.175Z,15.48
2022-11-21T05:57:31.136Z,17.77
2022-11-21T06:00:00.792Z,15.50
2022-11-21T06:02:46.228Z,16.80
2022-11-21T06:05:12.990Z,17.30
2022-11-21T06:07:39.687Z,16.42
2022-11-21T06:10:06.656Z,16.25
2022-11-21T06:12:33.379Z,16.48
2022-11-21T06:15:00.137Z,16.67
2022-11-21T06:17:26.969Z,17.02
2022-11-21T06:19:53.671Z,16.15
2022-11-21T06:22:20.428Z,15.23
2022-11-21T06:24:47.119Z,16.15
2022-11-21T06:27:13.716Z,17.50
2022-11-21T06:29:40.387Z,17.23
2022-11-21T06:32:06.996Z,16.33
2022-11-21T06:34:33.751Z,16.23
2022-11-21T06:37:00.822Z,16.45
2022-11-21T06:39:27.506Z,17.15
2022-11-21T06:41:54.215Z,17.05
2022-11-21T06:44:20.954Z,16.77
2022-11-21T06:46:51.167Z,16.17
2022-11-21T06:49:18.249Z,17.02
2022-11-21T06:51:44.891Z,17.15
2022-11-21T06:54:16.336Z,16.48
2022-11-21T06:56:43.966Z,16.92
2022-11-21T06:59:10.986Z,16.65
2022-11-21T07:01:37.731Z,16.58
2022-11-21T07:04:04.586Z,15.98
2022-11-21T07:06:31.265Z,16.63
2022-11-21T07:09:31.135Z,16.80
2022-11-21T07:11:44.591Z,17.08
2022-11-21T07:14:11.285Z,16.35
2022-11-21T07:16:38.203Z,16.98
2022-11-21T07:19:05.058Z,17.67
2022-11-21T07:21:31.677Z,17.95
2022-11-21T07:23:58.625Z,17.42
2022-11-21T07:26:25.228Z,17.27
2022-11-21T07:28:55.010Z,17.45
2022-11-21T07:31:21.725Z,18.98
2022-11-21T07:33:48.415Z,17.92
2022-11-21T07:36:15.115Z,16.92
2022-11-21T07:38:42.243Z,17.67
2022-11-21T07:41:09.703Z,17.58
2022-11-21T07:43:36.450Z,17.58
2022-11-21T07:46:03.141Z,18.25
2022-11-21T07:48:29.806Z,18.38
2022-11-21T07:50:59.342Z,17.80
2022-11-21T07:53:25.981Z,19.40
2022-11-21T07:55:52.717Z,19.25
2022-11-21T07:58:19.612Z,18.65
2022-11-21T08:00:46.283Z,19.05
2022-11-21T08:03:13.535Z,20.00
2022-11-21T08:05:42.070Z,19.05
2022-11-21T08:08:09.971Z,19.13
2022-11-21T08:10:43.286Z,16.58
2022-11-21T08:13:10.636Z,17.75
2022-11-21T08:15:37.745Z,18.10
2022-11-21T08:18:12.513Z,18.95
2022-11-21T08:20:39.589Z,16.30
2022-11-21T08:23:06.873Z,17.40
2022-11-21T08:25:34.915Z,16.70
2022-11-21T08:28:02.902Z,16.40
2022-11-21T08:30:29.943Z,16.65
2022-11-21T08:32:58.787Z,16.50
2022-11-21T08:35:26.572Z,16.95
2022-11-21T08:38:00.130Z,16.45
2022-11-21T08:40:28.420Z,17.13
2022-11-21T08:43:21.401Z,17.25
2022-11-21T08:45:48.056Z,16.77
2022-11-21T08:48:14.713Z,17.20
2022-11-21T08:50:41.376Z,16.58
2022-11-21T08:53:08.076Z,16.33
2022-11-21T08:55:34.803Z,16.70
2022-11-21T08:58:01.496Z,16.65
2022-11-21T09:00:28.393Z,14.77
2022-11-21T09:02:55.274Z,13.65
2022-11-21T09:05:22.396Z,13.65
2022-11-21T09:07:49.213Z,13.73
2022-11-21T09:10:16.229Z,13.95
2022-11-21T09:12:43.389Z,13.85
2022-11-21T09:15:29.841Z,12.95
2022-11-21T09:18:03.511Z,13.63
2022-11-21T09:20:34.852Z,13.10
2022-11-21T09:23:13.337Z,12.95
2022-11-21T09:25:40.105Z,12.60
2022-11-21T09:28:09.002Z,12.88
2022-11-21T09:30:36.066Z,11.32
2022-11-21T09:33:06.870Z,11.70
2022-11-21T09:35:33.850Z,11.52
2022-11-21T09:38:00.649Z,10.98
2022-11-21T09:40:29.542Z,10.23
2022-11-21T09:42:59.143Z,10.48
2022-11-21T09:45:42.296Z,9.88
2022-11-21T09:48:16.113Z,9.13
2022-11-21T09:50:53.805Z,8.45
2022-11-21T09:53:27.715Z,9.02
2022-11-21T09:56:11.688Z,9.23
2022-11-21T09:58:49.065Z,10.45
2022-11-21T10:01:16.937Z,11.25
2022-11-21T10:03:48.854Z,11.35
2022-11-21T10:06:27.105Z,10.90
2022-11-21T10:09:00.802Z,11.13
2022-11-21T10:12:20.875Z,11.30
2022-11-21T10:15:07.781Z,11.18
2022-11-21T10:17:41.911Z,11.45
2022-11-21T10:20:40.484Z,11.80
2022-11-21T10:23:42.668Z,13.30
2022-11-21T10:26:17.276Z,11.85
2022-11-21T10:28:59.680Z,11.93
2022-11-21T10:31:27.259Z,13.55
2022-11-21T10:33:54.587Z,12.40
2022-11-21T10:36:47.443Z,13.25
2022-11-21T10:39:19.417Z,13.05
2022-11-21T10:41:59.203Z,11.88
2022-11-21T10:44:48.806Z,11.32
2022-11-21T10:47:27.848Z,12.43
2022-11-21T10:50:06.476Z,11.60
2022-11-21T10:53:01.942Z,12.00
2022-11-21T10:55:28.680Z,12.45
2022-11-21T10:57:55.474Z,11.73
2022-11-21T11:00:24.771Z,10.85
2022-11-21T11:02:57.856Z,11.90
2022-11-21T11:05:38.057Z,11.35
2022-11-21T11:08:12.693Z,10.02
2022-11-21T11:10:44.340Z,9.88
2022-11-21T11:13:50.650Z,8.73
2022-11-21T11:16:21.339Z,9.38
2022-11-21T11:18:57.426Z,10.65
2022-11-21T11:21:44.322Z,10.50
2022-11-21T11:24:10.880Z,10.02
2022-11-21T11:26:49.785Z,9.18
2022-11-21T11:29:21.781Z,9.60
2022-11-21T11:31:57.646Z,10.25
2022-11-21T11:34:27.748Z,11.23
2022-11-21T11:36:55.692Z,10.93
2022-11-21T11:39:37.559Z,10.63
2022-11-21T11:42:34.189Z,10.35
2022-11-21T11:45:22.580Z,10.45
2022-11-21T11:48:13.978Z,11.40
2022-11-21T11:50:48.459Z,11.30
2022-11-21T11:53:23.854Z,11.90
2022-11-21T11:56:02.693Z,10.93
2022-11-21T11:58:53.417Z,11.00
2022-11-21T12:01:39.671Z,12.05
2022-11-21T12:04:13.001Z,11.15
2022-11-21T12:08:05.945Z,11.55
2022-11-21T12:10:01.908Z,11.55
2022-11-21T12:12:35.817Z,12.95
2022-11-21T12:15:45.381Z,12.75
2022-11-21T12:18:21.035Z,12.35
2022-11-21T12:21:02.876Z,10.90
2022-11-21T12:23:41.209Z,11.30
2022-11-21T12:26:40.384Z,11.75
2022-11-21T12:29:10.404Z,10.32
2022-11-21T12:31:44.444Z,10.25
2022-11-21T12:34:51.765Z,9.77
2022-11-21T12:37:50.202Z,10.20
2022-11-21T12:40:41.583Z,10.70
2022-11-21T12:43:18.714Z,11.00
2022-11-21T12:46:02.317Z,10.77
2022-11-21T12:49:12.918Z,11.27
2022-11-21T12:52:36.697Z,10.27
2022-11-21T12:55:12.159Z,10.50
2022-11-21T12:57:56.735Z,10.15
2022-11-21T13:00:49.066Z,10.30
2022-11-21T13:03:42.421Z,10.80
2022-11-21T13:06:19.719Z,10.60
2022-11-21T13:08:48.716Z,11.07
2022-11-21T13:11:47.363Z,9.52
2022-11-21T13:14:32.849Z,8.65
2022-11-21T13:17:11.117Z,8.32
2022-11-21T13:19:43.267Z,8.68
2022-11-21T13:22:36.304Z,8.65
2022-11-21T13:25:09.125Z,10.38
2022-11-21T13:27:39.157Z,10.32
2022-11-21T13:30:09.655Z,9.50
2022-11-21T13:32:44.721Z,9.98
2022-11-21T13:35:14.979Z,8.85
2022-11-21T13:38:01.313Z,8.50
2022-11-21T13:40:39.016Z,9.23
2022-11-21T13:43:31.348Z,9.75
2022-11-21T13:45:56.725Z,8.60
2022-11-21T13:48:34.790Z,8.95
2022-11-21T13:51:33.014Z,9.77
2022-11-21T13:54:17.979Z,9.60
2022-11-21T13:57:02.979Z,9.43
2022-11-21T13:59:47.050Z,10.00
2022-11-21T14:02:32.112Z,10.82
2022-11-21T14:05:04.411Z,11.10
2022-11-21T14:07:33.307Z,11.20
2022-11-21T14:10:02.128Z,11.10
2022-11-21T14:12:38.326Z,11.23
2022-11-21T14:15:24.026Z,11.07
2022-11-21T14:17:58.602Z,11.25
2022-11-21T14:20:27.824Z,11.82
2022-11-21T14:23:03.783Z,11.93
2022-11-21T14:25:33.445Z,12.27
2022-11-21T14:28:00.586Z,11.48
2022-11-21T14:30:29.848Z,11.98
2022-11-21T14:32:56.643Z,11.32
2022-11-21T14:35:24.308Z,12.85
2022-11-21T14:37:51.367Z,12.73
2022-11-21T14:40:23.073Z,12.65
2022-11-21T14:42:50.067Z,14.15
2022-11-21T14:45:19.946Z,13.52
2022-11-21T14:47:53.576Z,12.90
2022-11-21T14:50:24.766Z,12.48
2022-11-21T14:52:57.390Z,14.40
2022-11-21T14:55:31.542Z,13.65
2022-11-21T14:58:00.851Z,14.60
2022-11-21T15:00:58.120Z,15.20
2022-11-21T15:03:23.539Z,14.25
2022-11-21T15:06:05.045Z,13.50
2022-11-21T15:09:14.506Z,13.32
2022-11-21T15:11:21.862Z,12.23
2022-11-21T15:14:14.439Z,12.35
2022-11-21T15:16:38.072Z,12.60
2022-11-21T15:19:11.285Z,12.65
2022-11-21T15:21:44.451Z,12.93
2022-11-21T15:24:26.892Z,14.07
2022-11-21T15:26:53.520Z,14.13
2022-11-21T15:29:21.273Z,12.35
2022-11-21T15:32:07.434Z,12.52
2022-11-21T15:34:35.776Z,13.63
2022-11-21T15:37:13.304Z,13.52
2022-11-21T15:39:45.094Z,14.57
2022-11-21T15:42:44.264Z,14.35
2022-11-21T15:45:24.015Z,14.60
2022-11-21T15:47:51.083Z,14.23
2022-11-21T15:50:18.011Z,13.65
2022-11-21T15:52:50.134Z,14.18
2022-11-21T15:55:26.420Z,14.55
2022-11-21T15:57:53.336Z,14.48
2022-11-21T16:00:20.169Z,13.80
2022-11-21T16:02:47.441Z,13.77
2022-11-21T16:05:15.553Z,14.77
2022-11-21T16:07:42.533Z,14.63
2022-11-21T16:10:18.001Z,14.32
2022-11-21T16:12:48.494Z,13.48
2022-11-21T16:15:15.489Z,14.32
2022-11-21T16:17:42.344Z,14.88
2022-11-21T16:20:09.551Z,14.30
2022-11-21T16:22:44.185Z,14.35
2022-11-21T16:25:13.873Z,15.30
2022-11-21T16:27:40.669Z,15.23
2022-11-21T16:30:08.023Z,15.63
2022-11-21T16:32:34.882Z,15.95
2022-11-21T16:35:01.705Z,14.60
2022-11-21T16:37:28.666Z,15.07
2022-11-21T16:39:55.392Z,15.02
2022-11-21T16:42:22.283Z,15.07
2022-11-21T16:44:49.268Z,14.75
2022-11-21T16:47:15.987Z,16.17
2022-11-21T16:49:48.423Z,15.40
2022-11-21T16:52:24.065Z,20.30
2022-11-21T16:54:50.862Z,21.73
2022-11-21T16:57:17.582Z,19.17
2022-11-21T16:59:44.321Z,19.48
2022-11-21T17:02:11.130Z,19.05
2022-11-21T17:04:38.047Z,17.08
2022-11-21T17:07:04.909Z,16.02
2022-11-21T17:09:31.630Z,15.30
2022-11-21T17:11:59.405Z,17.30
2022-11-21T17:14:26.716Z,17.52
2022-11-21T17:16:53.680Z,16.83
2022-11-21T17:19:20.837Z,16.27
2022-11-21T17:21:47.679Z,15.25
2022-11-21T17:24:14.526Z,15.88
2022-11-21T17:26:41.263Z,16.33
2022-11-21T17:29:07.967Z,16.00
2022-11-21T17:31:34.913Z,17.10
2022-11-21T17:34:01.967Z,15.88
2022-11-21T17:36:30.136Z,23.08
2022-11-21T17:38:57.612Z,21.70
2022-11-21T17:41:26.172Z,26.45
2022-11-21T17:43:58.391Z,19.20
2022-11-21T17:46:26.416Z,17.83
2022-11-21T17:48:57.508Z,17.42
2022-11-21T17:51:34.510Z,17.40
2022-11-21T17:54:01.957Z,16.40
2022-11-21T17:56:31.662Z,17.52
2022-11-21T17:58:58.566Z,17.33
2022-11-21T18:01:25.683Z,18.10
2022-11-21T18:03:59.864Z,19.67
2022-11-21T18:06:28.647Z,19.20
2022-11-21T18:08:57.168Z,18.55
2022-11-21T18:11:24.568Z,19.05
2022-11-21T18:13:51.556Z,20.85
2022-11-21T18:16:20.941Z,17.88
2022-11-21T18:18:49.571Z,19.00
2022-11-21T18:21:18.799Z,17.77
2022-11-21T18:23:47.169Z,18.05
2022-11-21T18:26:23.177Z,17.45
2022-11-21T18:29:13.454Z,17.08
2022-11-21T18:31:44.142Z,17.38
2022-11-21T18:34:12.714Z,18.40
2022-11-21T18:36:39.577Z,17.85
2022-11-21T18:39:14.646Z,17.70
2022-11-21T18:41:42.380Z,18.98
2022-11-21T18:44:10.159Z,18.35
2022-11-21T18:46:38.114Z,19.05
2022-11-21T18:49:06.840Z,18.20
2022-11-21T18:51:34.749Z,19.33
2022-11-21T18:54:05.439Z,18.45
2022-11-21T18:56:32.447Z,19.48
2022-11-21T18:58:59.549Z,19.25
2022-11-21T19:01:28.136Z,18.10
2022-11-21T19:03:55.763Z,19.30
2022-11-21T19:06:23.785Z,18.00
2022-11-21T19:08:53.271Z,18.23
2022-11-21T19:11:21.281Z,18.35
2022-11-21T19:13:49.009Z,18.15
2022-11-21T19:16:18.497Z,19.02
2022-11-21T19:18:55.314Z,17.85
2022-11-21T19:21:36.700Z,17.35
2022-11-21T19:24:03.568Z,17.17
2022-11-21T19:26:31.644Z,18.65
2022-11-21T19:28:58.990Z,17.80
2022-11-21T19:31:26.129Z,17.92
2022-11-21T19:33:53.497Z,17.23
2022-11-21T19:36:22.113Z,16.88
2022-11-21T19:38:51.451Z,15.80
2022-11-21T19:41:20.090Z,16.50
2022-11-21T19:43:51.467Z,16.02
2022-11-21T19:46:21.320Z,16.15
2022-11-21T19:48:49.639Z,16.50
2022-11-21T19:51:18.001Z,16.48
2022-11-21T19:53:46.423Z,16.02
2022-11-21T19:56:18.274Z,16.88
2022-11-21T19:58:45.600Z,16.10
2022-11-21T20:01:20.463Z,21.95
2022-11-21T20:03:49.669Z,16.25
2022-11-21T20:06:24.451Z,16.90
2022-11-21T20:08:58.843Z,14.55
2022-11-21T20:11:26.642Z,14.25
2022-11-21T20:13:53.766Z,15.30
2022-11-21T20:16:32.456Z,14.07
2022-11-21T20:19:02.333Z,13.05
2022-11-21T20:21:29.781Z,15.60
2022-11-21T20:23:56.995Z,14.55
2022-11-21T20:26:24.883Z,15.35
2022-11-21T20:28:52.076Z,15.13
2022-11-21T20:31:24.916Z,15.77
2022-11-21T20:33:53.660Z,13.25
2022-11-21T20:36:22.625Z,12.25
2022-11-21T20:38:51.138Z,13.07
2022-11-21T20:41:19.241Z,12.73
2022-11-21T20:44:26.736Z,12.57
2022-11-21T20:46:34.463Z,12.95
2022-11-21T20:49:02.268Z,12.60
2022-11-21T20:54:16.300Z,12.63
2022-11-21T20:56:44.499Z,12.52
2022-11-21T20:59:11.437Z,13.15
2022-11-21T21:01:38.476Z,12.05
2022-11-21T21:04:05.516Z,12.57
2022-11-21T21:06:32.494Z,14.23
2022-11-21T21:09:00.477Z,13.13
2022-11-21T21:14:14.561Z,13.15
2022-11-21T21:16:41.442Z,13.02
2022-11-21T21:19:08.232Z,12.35
2022-11-21T21:21:35.008Z,12.32
2022-11-21T21:24:06.776Z,11.68
2022-11-21T21:26:41.744Z,11.45
2022-11-21T21:29:11.086Z,12.65
2022-11-21T21:31:37.846Z,11.98
2022-11-21T21:34:04.814Z,12.18
2022-11-21T21:36:32.286Z,13.77
2022-11-21T21:39:00.855Z,12.68
2022-11-21T21:41:30.033Z,12.50
2022-11-21T21:43:58.007Z,12.20
2022-11-21T21:46:27.339Z,12.13
2022-11-21T21:48:56.254Z,12.07
2022-11-21T21:51:25.077Z,12.43
2022-11-21T21:53:52.901Z,12.60
2022-11-21T21:56:20.851Z,12.73
2022-11-21T21:58:48.683Z,11.98
2022-11-21T22:01:20.928Z,11.88
2022-11-21T22:03:48.192Z,10.93
2022-11-21T22:06:18.935Z,11.65
2022-11-21T22:08:47.252Z,11.10
2022-11-21T22:11:16.208Z,11.52
2022-11-21T22:13:44.444Z,11.75
2022-11-21T22:16:12.383Z,11.32
2022-11-21T22:18:39.708Z,11.15
2022-11-21T22:21:24.672Z,10.80
2022-11-21T22:24:23.085Z,11.25
2022-11-21T22:26:38.113Z,12.00
2022-11-21T22:29:04.881Z,11.77
2022-11-21T22:31:31.631Z,11.10
2022-11-21T22:33:58.846Z,11.68
2022-11-21T22:36:25.840Z,12.20
2022-11-21T22:38:53.943Z,11.85
2022-11-21T22:41:22.493Z,11.25
2022-11-21T22:43:51.053Z,11.82
2022-11-21T22:46:18.155Z,11.93
2022-11-21T22:48:44.889Z,11.63
2022-11-21T22:51:19.344Z,11.80
2022-11-21T22:53:47.033Z,11.95
2022-11-21T22:56:16.806Z,12.05
2022-11-21T22:58:45.784Z,11.52
2022-11-21T23:01:14.803Z,12.40
2022-11-21T23:03:42.807Z,13.02
2022-11-21T23:06:18.747Z,11.60
2022-11-21T23:08:45.816Z,11.60
2022-11-21T23:11:31.628Z,11.68
2022-11-21T23:14:00.921Z,12.73
2022-11-21T23:16:28.754Z,12.90
2022-11-21T23:18:56.815Z,11.82
2022-11-21T23:21:23.850Z,11.98
2022-11-21T23:23:50.590Z,11.93
2022-11-21T23:26:17.261Z,11.90
2022-11-21T23:28:43.909Z,12.80
2022-11-21T23:31:10.761Z,12.38
2022-11-21T23:33:37.612Z,12.55
2022-11-21T23:36:04.695Z,12.82
2022-11-21T23:38:31.507Z,13.00
2022-11-21T23:40:58.251Z,13.20
2022-11-21T23:43:24.973Z,13.43
2022-11-21T23:45:52.552Z,13.68
2022-11-21T23:48:19.873Z,13.52
2022-11-21T23:50:47.455Z,13.45
2022-11-21T23:53:14.367Z,14.10
2022-11-21T23:55:44.494Z,13.90
2022-11-21T23:58:11.809Z,13.55
